sensor_id;sensor_type;location;lat;lon;timestamp;P1;durP1;ratioP1;P2;durP2;ratioP2
5077;SDS011;2557;51.390;7.494;2023-05-10T00:00:59;2.10;;;2.00;;
5077;SDS011;2557;51.390;7.494;2023-05-10T00:03:25;2.67;;;2.43;;
5077;SDS011;2557;51.390;7.494;2023-05-10T00:05:50;4.23;;;2.00;;
5077;SDS011;2557;51.390;7.494;2023-05-10T00:08:16;3.57;;;2.00;;
5077;SDS011;2557;51.390;7.494;2023-05-10T00:10:42;4.53;;;2.07;;
5077;SDS011;2557;51.390;7.494;2023-05-10T00:13:08;2.50;;;2.40;;
5077;SDS011;2557;51.390;7.494;2023-05-10T00:15:34;2.10;;;2.00;;
5077;SDS011;2557;51.390;7.494;2023-05-10T00:18:00;2.30;;;2.20;;
5077;SDS011;2557;51.390;7.494;2023-05-10T00:20:26;2.23;;;2.03;;
5077;SDS011;2557;51.390;7.494;2023-05-10T00:22:52;4.47;;;2.37;;
5077;SDS011;2557;51.390;7.494;2023-05-10T00:25:18;2.40;;;2.30;;
5077;SDS011;2557;51.390;7.494;2023-05-10T00:27:46;3.57;;;2.80;;
5077;SDS011;2557;51.390;7.494;2023-05-10T00:30:12;2.07;;;1.87;;
5077;SDS011;2557;51.390;7.494;2023-05-10T00:32:38;2.67;;;2.47;;
5077;SDS011;2557;51.390;7.494;2023-05-10T00:35:04;2.60;;;2.40;;
5077;SDS011;2557;51.390;7.494;2023-05-10T00:37:30;2.40;;;2.10;;
5077;SDS011;2557;51.390;7.494;2023-05-10T00:39:56;2.57;;;2.37;;
5077;SDS011;2557;51.390;7.494;2023-05-10T00:42:22;3.10;;;2.13;;
5077;SDS011;2557;51.390;7.494;2023-05-10T00:44:48;4.70;;;2.00;;
5077;SDS011;2557;51.390;7.494;2023-05-10T00:47:15;2.97;;;2.77;;
5077;SDS011;2557;51.390;7.494;2023-05-10T00:49:41;2.77;;;2.57;;
5077;SDS011;2557;51.390;7.494;2023-05-10T00:52:08;2.50;;;2.30;;
5077;SDS011;2557;51.390;7.494;2023-05-10T00:54:34;2.90;;;2.60;;
5077;SDS011;2557;51.390;7.494;2023-05-10T00:57:00;3.87;;;2.23;;
5077;SDS011;2557;51.390;7.494;2023-05-10T00:59:26;2.90;;;2.37;;
5077;SDS011;2557;51.390;7.494;2023-05-10T01:01:52;2.70;;;2.50;;
5077;SDS011;2557;51.390;7.494;2023-05-10T01:04:18;2.73;;;2.53;;
5077;SDS011;2557;51.390;7.494;2023-05-10T01:06:50;2.93;;;2.40;;
5077;SDS011;2557;51.390;7.494;2023-05-10T01:09:16;2.50;;;2.30;;
5077;SDS011;2557;51.390;7.494;2023-05-10T01:11:43;2.70;;;2.50;;
5077;SDS011;2557;51.390;7.494;2023-05-10T01:14:09;3.50;;;3.20;;
5077;SDS011;2557;51.390;7.494;2023-05-10T01:16:36;3.23;;;2.63;;
5077;SDS011;2557;51.390;7.494;2023-05-10T01:19:06;7.53;;;3.70;;
5077;SDS011;2557;51.390;7.494;2023-05-10T01:29:27;4.33;;;3.70;;
5077;SDS011;2557;51.390;7.494;2023-05-10T01:34:29;5.00;;;4.10;;
5077;SDS011;2557;51.390;7.494;2023-05-10T01:37:01;5.00;;;4.03;;
5077;SDS011;2557;51.390;7.494;2023-05-10T01:39:31;4.20;;;3.90;;
5077;SDS011;2557;51.390;7.494;2023-05-10T01:44:45;4.70;;;4.20;;
5077;SDS011;2557;51.390;7.494;2023-05-10T01:47:16;4.77;;;4.27;;
5077;SDS011;2557;51.390;7.494;2023-05-10T01:49:53;7.50;;;4.80;;
5077;SDS011;2557;51.390;7.494;2023-05-10T01:52:22;5.27;;;4.40;;
5077;SDS011;2557;51.390;7.494;2023-05-10T01:54:55;6.40;;;4.10;;
5077;SDS011;2557;51.390;7.494;2023-05-10T01:57:22;5.87;;;5.23;;
5077;SDS011;2557;51.390;7.494;2023-05-10T01:59:51;6.30;;;5.10;;
5077;SDS011;2557;51.390;7.494;2023-05-10T02:02:18;6.03;;;5.13;;
5077;SDS011;2557;51.390;7.494;2023-05-10T02:04:45;5.83;;;5.03;;
5077;SDS011;2557;51.390;7.494;2023-05-10T02:07:12;5.87;;;5.37;;
5077;SDS011;2557;51.390;7.494;2023-05-10T02:09:38;8.40;;;5.17;;
5077;SDS011;2557;51.390;7.494;2023-05-10T02:12:05;5.40;;;4.77;;
5077;SDS011;2557;51.390;7.494;2023-05-10T02:14:32;8.37;;;5.27;;
5077;SDS011;2557;51.390;7.494;2023-05-10T02:16:59;7.37;;;5.87;;
5077;SDS011;2557;51.390;7.494;2023-05-10T02:19:26;6.00;;;5.40;;
5077;SDS011;2557;51.390;7.494;2023-05-10T02:21:53;6.33;;;5.60;;
5077;SDS011;2557;51.390;7.494;2023-05-10T02:24:20;8.07;;;5.40;;
5077;SDS011;2557;51.390;7.494;2023-05-10T02:26:47;12.10;;;6.10;;
5077;SDS011;2557;51.390;7.494;2023-05-10T02:29:14;11.63;;;6.80;;
5077;SDS011;2557;51.390;7.494;2023-05-10T02:31:41;10.80;;;6.50;;
5077;SDS011;2557;51.390;7.494;2023-05-10T02:34:08;8.13;;;6.37;;
5077;SDS011;2557;51.390;7.494;2023-05-10T02:36:36;8.03;;;6.13;;
5077;SDS011;2557;51.390;7.494;2023-05-10T02:39:03;7.13;;;6.20;;
5077;SDS011;2557;51.390;7.494;2023-05-10T02:41:30;7.30;;;6.60;;
5077;SDS011;2557;51.390;7.494;2023-05-10T02:43:59;9.00;;;6.37;;
5077;SDS011;2557;51.390;7.494;2023-05-10T02:46:27;8.37;;;6.27;;
5077;SDS011;2557;51.390;7.494;2023-05-10T02:48:53;8.80;;;6.37;;
5077;SDS011;2557;51.390;7.494;2023-05-10T02:51:19;9.63;;;6.10;;
5077;SDS011;2557;51.390;7.494;2023-05-10T02:53:47;8.27;;;7.00;;
5077;SDS011;2557;51.390;7.494;2023-05-10T02:56:19;5.70;;;5.20;;
5077;SDS011;2557;51.390;7.494;2023-05-10T02:58:49;6.83;;;6.17;;
5077;SDS011;2557;51.390;7.494;2023-05-10T03:01:15;7.63;;;6.93;;
5077;SDS011;2557;51.390;7.494;2023-05-10T03:03:41;6.83;;;6.20;;
5077;SDS011;2557;51.390;7.494;2023-05-10T03:06:07;10.03;;;7.83;;
5077;SDS011;2557;51.390;7.494;2023-05-10T03:08:34;13.67;;;7.20;;
5077;SDS011;2557;51.390;7.494;2023-05-10T03:16:36;8.97;;;8.03;;
5077;SDS011;2557;51.390;7.494;2023-05-10T03:21:36;10.10;;;7.97;;
5077;SDS011;2557;51.390;7.494;2023-05-10T03:24:07;11.33;;;8.20;;
5077;SDS011;2557;51.390;7.494;2023-05-10T03:26:33;10.23;;;9.03;;
5077;SDS011;2557;51.390;7.494;2023-05-10T03:29:00;12.83;;;8.40;;
5077;SDS011;2557;51.390;7.494;2023-05-10T03:31:26;12.03;;;9.77;;
5077;SDS011;2557;51.390;7.494;2023-05-10T03:33:53;12.50;;;9.80;;
5077;SDS011;2557;51.390;7.494;2023-05-10T03:36:19;13.03;;;8.40;;
5077;SDS011;2557;51.390;7.494;2023-05-10T03:38:45;12.53;;;9.30;;
5077;SDS011;2557;51.390;7.494;2023-05-10T03:41:11;13.67;;;10.17;;
5077;SDS011;2557;51.390;7.494;2023-05-10T03:43:37;19.37;;;9.93;;
5077;SDS011;2557;51.390;7.494;2023-05-10T03:46:04;15.40;;;10.27;;
5077;SDS011;2557;51.390;7.494;2023-05-10T03:48:31;13.80;;;9.50;;
5077;SDS011;2557;51.390;7.494;2023-05-10T03:50:57;13.30;;;9.87;;
5077;SDS011;2557;51.390;7.494;2023-05-10T03:53:23;10.67;;;9.50;;
5077;SDS011;2557;51.390;7.494;2023-05-10T03:55:49;15.43;;;10.20;;
5077;SDS011;2557;51.390;7.494;2023-05-10T03:58:15;24.23;;;11.00;;
5077;SDS011;2557;51.390;7.494;2023-05-10T04:00:41;18.90;;;10.57;;
5077;SDS011;2557;51.390;7.494;2023-05-10T04:03:10;16.93;;;10.90;;
5077;SDS011;2557;51.390;7.494;2023-05-10T04:05:37;14.63;;;11.87;;
5077;SDS011;2557;51.390;7.494;2023-05-10T04:08:03;13.07;;;10.80;;
5077;SDS011;2557;51.390;7.494;2023-05-10T04:10:29;16.33;;;11.73;;
5077;SDS011;2557;51.390;7.494;2023-05-10T04:12:55;19.20;;;10.80;;
5077;SDS011;2557;51.390;7.494;2023-05-10T04:15:21;12.77;;;10.23;;
5077;SDS011;2557;51.390;7.494;2023-05-10T04:17:47;15.13;;;11.50;;
5077;SDS011;2557;51.390;7.494;2023-05-10T04:20:13;18.17;;;11.77;;
5077;SDS011;2557;51.390;7.494;2023-05-10T04:22:39;17.33;;;10.40;;
5077;SDS011;2557;51.390;7.494;2023-05-10T04:25:05;14.40;;;11.73;;
5077;SDS011;2557;51.390;7.494;2023-05-10T04:27:32;16.77;;;11.57;;
5077;SDS011;2557;51.390;7.494;2023-05-10T04:29:58;21.20;;;11.07;;
5077;SDS011;2557;51.390;7.494;2023-05-10T04:32:24;16.03;;;12.37;;
5077;SDS011;2557;51.390;7.494;2023-05-10T04:34:50;16.97;;;12.33;;
5077;SDS011;2557;51.390;7.494;2023-05-10T04:37:16;17.90;;;12.47;;
5077;SDS011;2557;51.390;7.494;2023-05-10T04:39:42;18.10;;;12.10;;
5077;SDS011;2557;51.390;7.494;2023-05-10T04:42:09;17.57;;;12.23;;
5077;SDS011;2557;51.390;7.494;2023-05-10T04:44:35;21.90;;;12.97;;
5077;SDS011;2557;51.390;7.494;2023-05-10T04:47:01;15.57;;;11.60;;
5077;SDS011;2557;51.390;7.494;2023-05-10T04:49:28;21.73;;;12.33;;
5077;SDS011;2557;51.390;7.494;2023-05-10T04:51:54;17.67;;;12.50;;
5077;SDS011;2557;51.390;7.494;2023-05-10T04:54:20;16.70;;;11.50;;
5077;SDS011;2557;51.390;7.494;2023-05-10T04:56:46;20.60;;;11.73;;
5077;SDS011;2557;51.390;7.494;2023-05-10T04:59:13;22.00;;;14.53;;
5077;SDS011;2557;51.390;7.494;2023-05-10T05:01:39;19.07;;;14.03;;
5077;SDS011;2557;51.390;7.494;2023-05-10T05:04:05;23.67;;;13.33;;
5077;SDS011;2557;51.390;7.494;2023-05-10T05:06:31;24.00;;;15.40;;
5077;SDS011;2557;51.390;7.494;2023-05-10T05:08:57;22.33;;;14.80;;
5077;SDS011;2557;51.390;7.494;2023-05-10T05:11:23;23.20;;;15.70;;
5077;SDS011;2557;51.390;7.494;2023-05-10T05:13:50;21.67;;;15.73;;
5077;SDS011;2557;51.390;7.494;2023-05-10T05:16:16;24.30;;;16.40;;
5077;SDS011;2557;51.390;7.494;2023-05-10T05:18:42;23.00;;;15.93;;
5077;SDS011;2557;51.390;7.494;2023-05-10T05:21:15;28.83;;;17.30;;
5077;SDS011;2557;51.390;7.494;2023-05-10T05:23:41;28.23;;;16.53;;
5077;SDS011;2557;51.390;7.494;2023-05-10T05:26:07;25.93;;;18.47;;
5077;SDS011;2557;51.390;7.494;2023-05-10T05:28:33;29.00;;;18.10;;
5077;SDS011;2557;51.390;7.494;2023-05-10T05:31:02;36.87;;;20.20;;
5077;SDS011;2557;51.390;7.494;2023-05-10T05:33:28;32.77;;;18.77;;
5077;SDS011;2557;51.390;7.494;2023-05-10T05:35:54;31.20;;;17.53;;
5077;SDS011;2557;51.390;7.494;2023-05-10T05:38:20;29.53;;;18.23;;
5077;SDS011;2557;51.390;7.494;2023-05-10T05:40:46;30.37;;;19.90;;
5077;SDS011;2557;51.390;7.494;2023-05-10T05:43:12;38.27;;;21.30;;
5077;SDS011;2557;51.390;7.494;2023-05-10T05:45:38;34.87;;;19.20;;
5077;SDS011;2557;51.390;7.494;2023-05-10T05:48:04;39.80;;;21.00;;
5077;SDS011;2557;51.390;7.494;2023-05-10T05:50:30;36.97;;;20.90;;
5077;SDS011;2557;51.390;7.494;2023-05-10T05:52:56;34.97;;;21.83;;
5077;SDS011;2557;51.390;7.494;2023-05-10T05:55:22;31.73;;;19.80;;
5077;SDS011;2557;51.390;7.494;2023-05-10T05:57:49;32.57;;;20.77;;
5077;SDS011;2557;51.390;7.494;2023-05-10T06:00:15;40.17;;;21.50;;
5077;SDS011;2557;51.390;7.494;2023-05-10T06:02:41;38.10;;;21.60;;
5077;SDS011;2557;51.390;7.494;2023-05-10T06:05:08;41.70;;;21.70;;
5077;SDS011;2557;51.390;7.494;2023-05-10T06:07:34;37.93;;;21.77;;
5077;SDS011;2557;51.390;7.494;2023-05-10T06:10:00;38.73;;;20.43;;
5077;SDS011;2557;51.390;7.494;2023-05-10T06:12:26;31.97;;;21.63;;
5077;SDS011;2557;51.390;7.494;2023-05-10T06:14:52;33.93;;;21.23;;
5077;SDS011;2557;51.390;7.494;2023-05-10T06:17:18;33.10;;;21.10;;
5077;SDS011;2557;51.390;7.494;2023-05-10T06:19:44;37.07;;;24.17;;
5077;SDS011;2557;51.390;7.494;2023-05-10T06:22:10;38.30;;;24.00;;
5077;SDS011;2557;51.390;7.494;2023-05-10T06:24:36;37.70;;;23.57;;
5077;SDS011;2557;51.390;7.494;2023-05-10T06:27:02;38.87;;;23.63;;
5077;SDS011;2557;51.390;7.494;2023-05-10T06:29:29;37.43;;;21.70;;
5077;SDS011;2557;51.390;7.494;2023-05-10T06:31:55;37.50;;;22.90;;
5077;SDS011;2557;51.390;7.494;2023-05-10T06:34:21;38.27;;;22.80;;
5077;SDS011;2557;51.390;7.494;2023-05-10T06:36:47;39.57;;;23.00;;
5077;SDS011;2557;51.390;7.494;2023-05-10T06:39:13;45.10;;;23.20;;
5077;SDS011;2557;51.390;7.494;2023-05-10T06:41:39;42.17;;;24.60;;
5077;SDS011;2557;51.390;7.494;2023-05-10T06:44:05;36.37;;;24.77;;
5077;SDS011;2557;51.390;7.494;2023-05-10T06:46:31;43.53;;;23.40;;
5077;SDS011;2557;51.390;7.494;2023-05-10T06:48:57;43.00;;;24.80;;
5077;SDS011;2557;51.390;7.494;2023-05-10T06:51:23;43.20;;;23.97;;
5077;SDS011;2557;51.390;7.494;2023-05-10T06:53:49;46.90;;;24.77;;
5077;SDS011;2557;51.390;7.494;2023-05-10T06:56:15;48.27;;;24.73;;
5077;SDS011;2557;51.390;7.494;2023-05-10T06:58:41;38.93;;;22.37;;
5077;SDS011;2557;51.390;7.494;2023-05-10T07:01:07;38.80;;;23.30;;
5077;SDS011;2557;51.390;7.494;2023-05-10T07:03:33;38.30;;;22.40;;
5077;SDS011;2557;51.390;7.494;2023-05-10T07:06:02;36.83;;;21.63;;
5077;SDS011;2557;51.390;7.494;2023-05-10T07:08:29;33.20;;;21.30;;
5077;SDS011;2557;51.390;7.494;2023-05-10T07:10:59;32.23;;;21.80;;
5077;SDS011;2557;51.390;7.494;2023-05-10T07:13:25;35.97;;;21.70;;
5077;SDS011;2557;51.390;7.494;2023-05-10T07:15:51;31.60;;;21.80;;
5077;SDS011;2557;51.390;7.494;2023-05-10T07:18:17;29.50;;;19.50;;
5077;SDS011;2557;51.390;7.494;2023-05-10T07:20:43;38.23;;;20.27;;
5077;SDS011;2557;51.390;7.494;2023-05-10T07:23:09;32.20;;;21.70;;
5077;SDS011;2557;51.390;7.494;2023-05-10T07:25:35;26.20;;;17.77;;
5077;SDS011;2557;51.390;7.494;2023-05-10T07:28:01;30.03;;;18.27;;
5077;SDS011;2557;51.390;7.494;2023-05-10T07:30:27;31.50;;;18.60;;
5077;SDS011;2557;51.390;7.494;2023-05-10T07:32:53;27.50;;;18.27;;
5077;SDS011;2557;51.390;7.494;2023-05-10T07:35:19;29.20;;;20.27;;
5077;SDS011;2557;51.390;7.494;2023-05-10T07:37:45;24.50;;;18.83;;
5077;SDS011;2557;51.390;7.494;2023-05-10T07:40:11;34.93;;;19.67;;
5077;SDS011;2557;51.390;7.494;2023-05-10T07:42:37;29.70;;;19.70;;
5077;SDS011;2557;51.390;7.494;2023-05-10T07:45:03;28.13;;;17.73;;
5077;SDS011;2557;51.390;7.494;2023-05-10T07:47:29;30.43;;;19.67;;
5077;SDS011;2557;51.390;7.494;2023-05-10T07:49:55;22.50;;;17.53;;
5077;SDS011;2557;51.390;7.494;2023-05-10T07:52:21;28.60;;;16.90;;
5077;SDS011;2557;51.390;7.494;2023-05-10T07:54:48;24.50;;;15.60;;
5077;SDS011;2557;51.390;7.494;2023-05-10T07:57:14;28.40;;;15.70;;
5077;SDS011;2557;51.390;7.494;2023-05-10T07:59:42;23.87;;;15.53;;
5077;SDS011;2557;51.390;7.494;2023-05-10T08:02:09;29.10;;;16.93;;
5077;SDS011;2557;51.390;7.494;2023-05-10T08:04:35;21.50;;;14.43;;
5077;SDS011;2557;51.390;7.494;2023-05-10T08:07:01;24.07;;;15.53;;
5077;SDS011;2557;51.390;7.494;2023-05-10T08:09:27;19.40;;;13.50;;
5077;SDS011;2557;51.390;7.494;2023-05-10T08:11:53;19.47;;;14.47;;
5077;SDS011;2557;51.390;7.494;2023-05-10T08:14:19;23.43;;;16.00;;
5077;SDS011;2557;51.390;7.494;2023-05-10T08:16:45;23.53;;;15.20;;
5077;SDS011;2557;51.390;7.494;2023-05-10T08:19:11;21.80;;;14.00;;
5077;SDS011;2557;51.390;7.494;2023-05-10T08:21:37;21.67;;;13.80;;
5077;SDS011;2557;51.390;7.494;2023-05-10T08:24:05;19.53;;;12.43;;
5077;SDS011;2557;51.390;7.494;2023-05-10T08:26:32;16.67;;;12.47;;
5077;SDS011;2557;51.390;7.494;2023-05-10T08:28:58;16.80;;;12.87;;
5077;SDS011;2557;51.390;7.494;2023-05-10T08:31:24;16.27;;;11.90;;
5077;SDS011;2557;51.390;7.494;2023-05-10T08:33:50;19.37;;;13.13;;
5077;SDS011;2557;51.390;7.494;2023-05-10T08:36:17;18.10;;;10.93;;
5077;SDS011;2557;51.390;7.494;2023-05-10T08:38:46;20.80;;;14.20;;
5077;SDS011;2557;51.390;7.494;2023-05-10T08:41:13;15.07;;;13.30;;
5077;SDS011;2557;51.390;7.494;2023-05-10T08:43:39;17.53;;;12.00;;
5077;SDS011;2557;51.390;7.494;2023-05-10T08:46:06;16.70;;;10.77;;
5077;SDS011;2557;51.390;7.494;2023-05-10T08:48:34;18.80;;;13.10;;
5077;SDS011;2557;51.390;7.494;2023-05-10T08:51:00;19.03;;;11.80;;
5077;SDS011;2557;51.390;7.494;2023-05-10T08:53:28;19.23;;;11.67;;
5077;SDS011;2557;51.390;7.494;2023-05-10T08:55:54;17.70;;;12.10;;
5077;SDS011;2557;51.390;7.494;2023-05-10T08:58:20;19.13;;;11.97;;
5077;SDS011;2557;51.390;7.494;2023-05-10T09:00:48;17.83;;;11.20;;
5077;SDS011;2557;51.390;7.494;2023-05-10T09:03:15;15.07;;;11.50;;
5077;SDS011;2557;51.390;7.494;2023-05-10T09:05:42;14.63;;;10.87;;
5077;SDS011;2557;51.390;7.494;2023-05-10T09:08:09;16.37;;;11.07;;
5077;SDS011;2557;51.390;7.494;2023-05-10T09:10:35;12.20;;;10.07;;
5077;SDS011;2557;51.390;7.494;2023-05-10T09:13:02;15.30;;;10.03;;
5077;SDS011;2557;51.390;7.494;2023-05-10T09:15:29;12.40;;;9.67;;
5077;SDS011;2557;51.390;7.494;2023-05-10T09:17:55;14.07;;;11.03;;
5077;SDS011;2557;51.390;7.494;2023-05-10T09:20:23;12.73;;;11.00;;
5077;SDS011;2557;51.390;7.494;2023-05-10T09:22:49;15.30;;;10.40;;
5077;SDS011;2557;51.390;7.494;2023-05-10T09:25:15;11.93;;;8.73;;
5077;SDS011;2557;51.390;7.494;2023-05-10T09:27:45;11.47;;;9.50;;
5077;SDS011;2557;51.390;7.494;2023-05-10T09:30:30;13.37;;;8.53;;
5077;SDS011;2557;51.390;7.494;2023-05-10T09:32:59;12.97;;;9.40;;
5077;SDS011;2557;51.390;7.494;2023-05-10T09:35:29;13.67;;;8.40;;
5077;SDS011;2557;51.390;7.494;2023-05-10T09:37:56;10.97;;;9.00;;
5077;SDS011;2557;51.390;7.494;2023-05-10T09:40:24;13.63;;;8.50;;
5077;SDS011;2557;51.390;7.494;2023-05-10T09:42:57;10.33;;;8.83;;
5077;SDS011;2557;51.390;7.494;2023-05-10T09:45:24;19.53;;;9.20;;
5077;SDS011;2557;51.390;7.494;2023-05-10T09:47:50;15.10;;;7.27;;
5077;SDS011;2557;51.390;7.494;2023-05-10T09:50:16;8.73;;;7.13;;
5077;SDS011;2557;51.390;7.494;2023-05-10T09:52:46;8.87;;;7.90;;
5077;SDS011;2557;51.390;7.494;2023-05-10T09:55:12;11.97;;;8.50;;
5077;SDS011;2557;51.390;7.494;2023-05-10T09:57:39;8.90;;;7.73;;
5077;SDS011;2557;51.390;7.494;2023-05-10T10:00:06;8.80;;;7.40;;
5077;SDS011;2557;51.390;7.494;2023-05-10T10:02:32;11.10;;;7.97;;
5077;SDS011;2557;51.390;7.494;2023-05-10T10:05:01;8.90;;;6.87;;
5077;SDS011;2557;51.390;7.494;2023-05-10T10:07:28;8.03;;;6.13;;
5077;SDS011;2557;51.390;7.494;2023-05-10T10:09:54;9.90;;;7.13;;
5077;SDS011;2557;51.390;7.494;2023-05-10T10:12:20;8.43;;;7.20;;
5077;SDS011;2557;51.390;7.494;2023-05-10T10:14:47;9.93;;;6.80;;
5077;SDS011;2557;51.390;7.494;2023-05-10T10:17:15;9.77;;;5.60;;
5077;SDS011;2557;51.390;7.494;2023-05-10T10:19:41;10.10;;;7.20;;
5077;SDS011;2557;51.390;7.494;2023-05-10T10:22:07;9.30;;;7.50;;
5077;SDS011;2557;51.390;7.494;2023-05-10T10:24:36;8.60;;;7.00;;
5077;SDS011;2557;51.390;7.494;2023-05-10T10:27:04;9.63;;;7.47;;
5077;SDS011;2557;51.390;7.494;2023-05-10T10:29:38;7.47;;;6.50;;
5077;SDS011;2557;51.390;7.494;2023-05-10T10:32:19;10.57;;;6.60;;
5077;SDS011;2557;51.390;7.494;2023-05-10T10:34:48;8.60;;;6.47;;
5077;SDS011;2557;51.390;7.494;2023-05-10T10:37:14;10.97;;;6.87;;
5077;SDS011;2557;51.390;7.494;2023-05-10T10:39:40;10.50;;;7.90;;
5077;SDS011;2557;51.390;7.494;2023-05-10T10:42:06;8.20;;;6.93;;
5077;SDS011;2557;51.390;7.494;2023-05-10T10:47:09;12.30;;;9.90;;
5077;SDS011;2557;51.390;7.494;2023-05-10T10:50:02;9.93;;;7.30;;
5077;SDS011;2557;51.390;7.494;2023-05-10T10:52:32;18.77;;;9.20;;
5077;SDS011;2557;51.390;7.494;2023-05-10T10:54:59;14.80;;;8.00;;
5077;SDS011;2557;51.390;7.494;2023-05-10T10:57:26;15.67;;;9.67;;
5077;SDS011;2557;51.390;7.494;2023-05-10T11:05:22;22.57;;;11.63;;
5077;SDS011;2557;51.390;7.494;2023-05-10T11:07:55;21.73;;;13.60;;
5077;SDS011;2557;51.390;7.494;2023-05-10T11:10:22;31.00;;;15.80;;
5077;SDS011;2557;51.390;7.494;2023-05-10T11:13:01;23.33;;;15.47;;
5077;SDS011;2557;51.390;7.494;2023-05-10T11:17:59;24.10;;;15.20;;
5077;SDS011;2557;51.390;7.494;2023-05-10T11:20:33;25.40;;;16.40;;
5077;SDS011;2557;51.390;7.494;2023-05-10T11:23:11;25.50;;;15.60;;
5077;SDS011;2557;51.390;7.494;2023-05-10T11:25:43;22.70;;;15.33;;
5077;SDS011;2557;51.390;7.494;2023-05-10T11:28:10;24.63;;;16.13;;
5077;SDS011;2557;51.390;7.494;2023-05-10T11:30:40;23.10;;;12.67;;
5077;SDS011;2557;51.390;7.494;2023-05-10T11:33:06;16.70;;;11.70;;
5077;SDS011;2557;51.390;7.494;2023-05-10T11:35:39;17.80;;;12.23;;
5077;SDS011;2557;51.390;7.494;2023-05-10T11:38:06;14.57;;;10.50;;
5077;SDS011;2557;51.390;7.494;2023-05-10T11:40:32;11.87;;;9.67;;
5077;SDS011;2557;51.390;7.494;2023-05-10T11:42:58;11.60;;;8.80;;
5077;SDS011;2557;51.390;7.494;2023-05-10T11:45:24;14.27;;;9.77;;
5077;SDS011;2557;51.390;7.494;2023-05-10T11:47:51;10.60;;;9.50;;
5077;SDS011;2557;51.390;7.494;2023-05-10T11:50:17;14.40;;;9.70;;
5077;SDS011;2557;51.390;7.494;2023-05-10T11:52:43;10.93;;;9.70;;
5077;SDS011;2557;51.390;7.494;2023-05-10T11:55:09;14.27;;;10.97;;
5077;SDS011;2557;51.390;7.494;2023-05-10T11:57:35;14.17;;;8.77;;
5077;SDS011;2557;51.390;7.494;2023-05-10T12:00:03;10.83;;;8.20;;
5077;SDS011;2557;51.390;7.494;2023-05-10T12:02:30;13.10;;;9.30;;
5077;SDS011;2557;51.390;7.494;2023-05-10T12:04:56;14.43;;;10.73;;
5077;SDS011;2557;51.390;7.494;2023-05-10T12:07:22;17.50;;;11.40;;
5077;SDS011;2557;51.390;7.494;2023-05-10T12:10:05;16.13;;;10.90;;
5077;SDS011;2557;51.390;7.494;2023-05-10T12:15:03;12.83;;;9.10;;
5077;SDS011;2557;51.390;7.494;2023-05-10T12:17:30;11.40;;;9.20;;
5077;SDS011;2557;51.390;7.494;2023-05-10T12:19:59;16.83;;;11.30;;
5077;SDS011;2557;51.390;7.494;2023-05-10T12:22:25;19.33;;;10.33;;
5077;SDS011;2557;51.390;7.494;2023-05-10T12:24:51;18.43;;;11.20;;
5077;SDS011;2557;51.390;7.494;2023-05-10T12:27:17;15.53;;;10.80;;
5077;SDS011;2557;51.390;7.494;2023-05-10T12:29:43;12.00;;;9.70;;
5077;SDS011;2557;51.390;7.494;2023-05-10T12:32:09;16.47;;;11.37;;
5077;SDS011;2557;51.390;7.494;2023-05-10T12:34:35;14.33;;;10.33;;
5077;SDS011;2557;51.390;7.494;2023-05-10T12:37:03;13.60;;;9.90;;
5077;SDS011;2557;51.390;7.494;2023-05-10T12:39:42;12.50;;;8.80;;
5077;SDS011;2557;51.390;7.494;2023-05-10T12:42:09;12.70;;;9.17;;
5077;SDS011;2557;51.390;7.494;2023-05-10T12:44:35;10.93;;;8.90;;
5077;SDS011;2557;51.390;7.494;2023-05-10T12:47:01;11.27;;;8.73;;
5077;SDS011;2557;51.390;7.494;2023-05-10T12:49:26;14.30;;;10.57;;
5077;SDS011;2557;51.390;7.494;2023-05-10T12:51:52;13.33;;;8.60;;
5077;SDS011;2557;51.390;7.494;2023-05-10T12:54:18;11.20;;;9.13;;
5077;SDS011;2557;51.390;7.494;2023-05-10T12:56:44;19.83;;;12.27;;
5077;SDS011;2557;51.390;7.494;2023-05-10T12:59:10;16.23;;;10.23;;
5077;SDS011;2557;51.390;7.494;2023-05-10T13:01:36;13.90;;;10.10;;
5077;SDS011;2557;51.390;7.494;2023-05-10T13:04:03;11.87;;;9.53;;
5077;SDS011;2557;51.390;7.494;2023-05-10T13:06:29;12.73;;;8.63;;
5077;SDS011;2557;51.390;7.494;2023-05-10T13:08:55;12.60;;;9.07;;
5077;SDS011;2557;51.390;7.494;2023-05-10T13:11:22;12.80;;;9.80;;
5077;SDS011;2557;51.390;7.494;2023-05-10T13:13:48;15.70;;;9.87;;
5077;SDS011;2557;51.390;7.494;2023-05-10T13:16:14;16.03;;;10.30;;
5077;SDS011;2557;51.390;7.494;2023-05-10T13:18:40;11.93;;;8.70;;
5077;SDS011;2557;51.390;7.494;2023-05-10T13:21:06;11.10;;;9.03;;
5077;SDS011;2557;51.390;7.494;2023-05-10T13:23:32;16.93;;;9.33;;
5077;SDS011;2557;51.390;7.494;2023-05-10T13:25:58;14.00;;;9.17;;
5077;SDS011;2557;51.390;7.494;2023-05-10T13:28:24;12.20;;;9.10;;
5077;SDS011;2557;51.390;7.494;2023-05-10T13:30:51;10.20;;;7.23;;
5077;SDS011;2557;51.390;7.494;2023-05-10T13:33:17;9.77;;;6.70;;
5077;SDS011;2557;51.390;7.494;2023-05-10T13:35:43;13.50;;;7.77;;
5077;SDS011;2557;51.390;7.494;2023-05-10T13:38:09;10.17;;;7.60;;
5077;SDS011;2557;51.390;7.494;2023-05-10T13:40:35;10.80;;;7.97;;
5077;SDS011;2557;51.390;7.494;2023-05-10T13:43:01;9.83;;;8.47;;
5077;SDS011;2557;51.390;7.494;2023-05-10T13:45:27;12.70;;;9.30;;
5077;SDS011;2557;51.390;7.494;2023-05-10T13:47:53;12.20;;;10.17;;
5077;SDS011;2557;51.390;7.494;2023-05-10T13:50:19;11.90;;;9.60;;
5077;SDS011;2557;51.390;7.494;2023-05-10T13:52:45;12.40;;;9.70;;
5077;SDS011;2557;51.390;7.494;2023-05-10T13:55:12;16.00;;;10.77;;
5077;SDS011;2557;51.390;7.494;2023-05-10T13:57:38;11.53;;;9.40;;
5077;SDS011;2557;51.390;7.494;2023-05-10T14:00:04;11.17;;;9.80;;
5077;SDS011;2557;51.390;7.494;2023-05-10T14:02:30;13.00;;;9.30;;
5077;SDS011;2557;51.390;7.494;2023-05-10T14:04:56;14.47;;;10.70;;
5077;SDS011;2557;51.390;7.494;2023-05-10T14:07:22;11.93;;;9.93;;
5077;SDS011;2557;51.390;7.494;2023-05-10T14:09:48;12.27;;;10.60;;
5077;SDS011;2557;51.390;7.494;2023-05-10T14:12:14;11.10;;;9.60;;
5077;SDS011;2557;51.390;7.494;2023-05-10T14:14:41;13.13;;;9.63;;
5077;SDS011;2557;51.390;7.494;2023-05-10T14:17:07;17.23;;;9.43;;
5077;SDS011;2557;51.390;7.494;2023-05-10T14:19:33;11.60;;;9.47;;
5077;SDS011;2557;51.390;7.494;2023-05-10T14:21:59;11.73;;;10.00;;
5077;SDS011;2557;51.390;7.494;2023-05-10T14:24:25;13.77;;;9.43;;
5077;SDS011;2557;51.390;7.494;2023-05-10T14:26:51;12.17;;;10.40;;
5077;SDS011;2557;51.390;7.494;2023-05-10T14:29:19;16.43;;;10.17;;
5077;SDS011;2557;51.390;7.494;2023-05-10T14:31:45;11.20;;;9.90;;
5077;SDS011;2557;51.390;7.494;2023-05-10T14:34:11;13.43;;;10.10;;
5077;SDS011;2557;51.390;7.494;2023-05-10T14:36:37;13.13;;;10.30;;
5077;SDS011;2557;51.390;7.494;2023-05-10T14:39:03;12.90;;;9.43;;
5077;SDS011;2557;51.390;7.494;2023-05-10T14:41:29;17.17;;;9.57;;
5077;SDS011;2557;51.390;7.494;2023-05-10T14:43:55;10.80;;;9.17;;
5077;SDS011;2557;51.390;7.494;2023-05-10T14:46:22;12.23;;;10.00;;
5077;SDS011;2557;51.390;7.494;2023-05-10T14:48:47;9.63;;;8.73;;
5077;SDS011;2557;51.390;7.494;2023-05-10T14:51:13;10.20;;;8.97;;
5077;SDS011;2557;51.390;7.494;2023-05-10T14:53:40;11.73;;;9.30;;
5077;SDS011;2557;51.390;7.494;2023-05-10T14:56:06;9.30;;;7.87;;
5077;SDS011;2557;51.390;7.494;2023-05-10T14:58:32;7.10;;;6.50;;
5077;SDS011;2557;51.390;7.494;2023-05-10T15:00:58;13.20;;;8.73;;
5077;SDS011;2557;51.390;7.494;2023-05-10T15:03:24;13.97;;;6.80;;
5077;SDS011;2557;51.390;7.494;2023-05-10T15:05:50;6.47;;;5.87;;
5077;SDS011;2557;51.390;7.494;2023-05-10T15:08:17;9.70;;;6.27;;
5077;SDS011;2557;51.390;7.494;2023-05-10T15:10:43;6.60;;;5.47;;
5077;SDS011;2557;51.390;7.494;2023-05-10T15:13:09;5.43;;;4.87;;
5077;SDS011;2557;51.390;7.494;2023-05-10T15:15:35;6.43;;;5.93;;
5077;SDS011;2557;51.390;7.494;2023-05-10T15:18:01;7.50;;;5.50;;
5077;SDS011;2557;51.390;7.494;2023-05-10T15:20:26;6.47;;;5.90;;
5077;SDS011;2557;51.390;7.494;2023-05-10T15:22:53;10.83;;;7.13;;
5077;SDS011;2557;51.390;7.494;2023-05-10T15:25:19;9.63;;;8.67;;
5077;SDS011;2557;51.390;7.494;2023-05-10T15:27:45;7.90;;;7.10;;
5077;SDS011;2557;51.390;7.494;2023-05-10T15:30:11;8.07;;;7.27;;